sensor_id;sensor_type;location;lat;lon;timestamp;P1;durP1;ratioP1;P2;durP2;ratioP2
75400;SDS011;63974;47.538;18.972;2023-08-06T00:00:30;4.18;;;3.47;;
75400;SDS011;63974;47.538;18.972;2023-08-06T00:03:33;6.47;;;2.58;;
75400;SDS011;63974;47.538;18.972;2023-08-06T00:06:36;4.07;;;3.20;;
75400;SDS011;63974;47.538;18.972;2023-08-06T00:09:39;5.93;;;2.70;;
75400;SDS011;63974;47.538;18.972;2023-08-06T00:12:42;4.67;;;3.50;;
75400;SDS011;63974;47.538;18.972;2023-08-06T00:15:45;4.90;;;3.47;;
75400;SDS011;63974;47.538;18.972;2023-08-06T00:18:48;4.60;;;3.35;;
75400;SDS011;63974;47.538;18.972;2023-08-06T00:21:50;5.18;;;3.88;;
75400;SDS011;63974;47.538;18.972;2023-08-06T00:24:54;7.20;;;4.17;;
75400;SDS011;63974;47.538;18.972;2023-08-06T00:27:59;5.77;;;3.63;;
75400;SDS011;63974;47.538;18.972;2023-08-06T00:31:02;6.78;;;4.20;;
75400;SDS011;63974;47.538;18.972;2023-08-06T00:34:05;8.85;;;5.10;;
75400;SDS011;63974;47.538;18.972;2023-08-06T00:37:08;6.05;;;4.32;;
75400;SDS011;63974;47.538;18.972;2023-08-06T00:40:11;10.33;;;4.87;;
75400;SDS011;63974;47.538;18.972;2023-08-06T00:43:13;5.77;;;4.40;;
75400;SDS011;63974;47.538;18.972;2023-08-06T00:46:16;5.40;;;3.95;;
75400;SDS011;63974;47.538;18.972;2023-08-06T00:49:19;5.55;;;3.88;;
75400;SDS011;63974;47.538;18.972;2023-08-06T00:52:22;8.32;;;4.60;;
75400;SDS011;63974;47.538;18.972;2023-08-06T00:55:25;5.57;;;4.10;;
75400;SDS011;63974;47.538;18.972;2023-08-06T00:58:28;9.40;;;4.80;;
75400;SDS011;63974;47.538;18.972;2023-08-06T01:01:31;7.70;;;4.68;;
75400;SDS011;63974;47.538;18.972;2023-08-06T01:04:34;6.25;;;4.45;;
75400;SDS011;63974;47.538;18.972;2023-08-06T01:07:44;5.93;;;3.90;;
75400;SDS011;63974;47.538;18.972;2023-08-06T01:11:08;10.13;;;5.00;;
75400;SDS011;63974;47.538;18.972;2023-08-06T01:17:24;7.15;;;4.45;;
75400;SDS011;63974;47.538;18.972;2023-08-06T01:20:30;6.82;;;4.50;;
75400;SDS011;63974;47.538;18.972;2023-08-06T01:23:33;6.47;;;4.70;;
75400;SDS011;63974;47.538;18.972;2023-08-06T01:26:42;6.03;;;3.73;;
75400;SDS011;63974;47.538;18.972;2023-08-06T01:29:56;7.60;;;4.40;;
75400;SDS011;63974;47.538;18.972;2023-08-06T01:33:05;7.57;;;4.55;;
75400;SDS011;63974;47.538;18.972;2023-08-06T01:36:09;7.30;;;4.13;;
75400;SDS011;63974;47.538;18.972;2023-08-06T01:39:13;6.63;;;4.53;;
75400;SDS011;63974;47.538;18.972;2023-08-06T01:42:16;6.83;;;4.40;;
75400;SDS011;63974;47.538;18.972;2023-08-06T01:45:19;6.13;;;4.13;;
75400;SDS011;63974;47.538;18.972;2023-08-06T01:48:22;6.82;;;4.68;;
75400;SDS011;63974;47.538;18.972;2023-08-06T01:51:25;6.53;;;4.13;;
75400;SDS011;63974;47.538;18.972;2023-08-06T01:54:28;7.85;;;4.18;;
75400;SDS011;63974;47.538;18.972;2023-08-06T01:57:30;8.37;;;5.13;;
75400;SDS011;63974;47.538;18.972;2023-08-06T02:00:33;11.77;;;6.13;;
75400;SDS011;63974;47.538;18.972;2023-08-06T02:03:36;5.57;;;3.92;;
75400;SDS011;63974;47.538;18.972;2023-08-06T02:06:39;6.07;;;4.13;;
75400;SDS011;63974;47.538;18.972;2023-08-06T02:09:42;7.70;;;4.70;;
75400;SDS011;63974;47.538;18.972;2023-08-06T02:12:44;7.70;;;4.23;;
75400;SDS011;63974;47.538;18.972;2023-08-06T02:15:47;10.23;;;4.83;;
75400;SDS011;63974;47.538;18.972;2023-08-06T02:18:51;9.30;;;4.90;;
75400;SDS011;63974;47.538;18.972;2023-08-06T02:21:54;6.60;;;4.65;;
75400;SDS011;63974;47.538;18.972;2023-08-06T02:24:57;6.22;;;5.03;;
75400;SDS011;63974;47.538;18.972;2023-08-06T02:27:59;8.73;;;4.50;;
75400;SDS011;63974;47.538;18.972;2023-08-06T02:31:02;5.87;;;4.77;;
75400;SDS011;63974;47.538;18.972;2023-08-06T02:34:05;7.70;;;4.68;;
75400;SDS011;63974;47.538;18.972;2023-08-06T02:37:08;6.57;;;4.80;;
75400;SDS011;63974;47.538;18.972;2023-08-06T02:40:11;9.45;;;4.72;;
75400;SDS011;63974;47.538;18.972;2023-08-06T02:43:14;9.17;;;5.30;;
75400;SDS011;63974;47.538;18.972;2023-08-06T02:46:17;8.07;;;5.43;;
75400;SDS011;63974;47.538;18.972;2023-08-06T02:49:19;8.80;;;5.50;;
75400;SDS011;63974;47.538;18.972;2023-08-06T02:52:22;11.90;;;6.10;;
75400;SDS011;63974;47.538;18.972;2023-08-06T02:55:25;9.73;;;5.45;;
75400;SDS011;63974;47.538;18.972;2023-08-06T02:58:28;11.77;;;5.60;;
75400;SDS011;63974;47.538;18.972;2023-08-06T03:01:40;10.40;;;6.03;;
75400;SDS011;63974;47.538;18.972;2023-08-06T03:04:51;8.52;;;4.85;;
75400;SDS011;63974;47.538;18.972;2023-08-06T03:07:57;9.23;;;4.22;;
75400;SDS011;63974;47.538;18.972;2023-08-06T03:11:02;9.57;;;4.75;;
75400;SDS011;63974;47.538;18.972;2023-08-06T03:14:06;6.43;;;4.00;;
75400;SDS011;63974;47.538;18.972;2023-08-06T03:17:09;7.37;;;3.97;;
75400;SDS011;63974;47.538;18.972;2023-08-06T03:20:12;8.57;;;4.10;;
75400;SDS011;63974;47.538;18.972;2023-08-06T03:23:15;4.72;;;3.50;;
75400;SDS011;63974;47.538;18.972;2023-08-06T03:26:18;4.43;;;2.30;;
75400;SDS011;63974;47.538;18.972;2023-08-06T03:29:22;3.77;;;1.77;;
75400;SDS011;63974;47.538;18.972;2023-08-06T03:32:26;2.43;;;1.40;;
75400;SDS011;63974;47.538;18.972;2023-08-06T03:35:30;3.15;;;1.45;;
75400;SDS011;63974;47.538;18.972;2023-08-06T03:38:33;3.17;;;1.60;;
75400;SDS011;63974;47.538;18.972;2023-08-06T03:41:40;2.10;;;1.00;;
75400;SDS011;63974;47.538;18.972;2023-08-06T03:44:43;2.50;;;1.20;;
75400;SDS011;63974;47.538;18.972;2023-08-06T03:47:46;1.47;;;0.90;;
75400;SDS011;63974;47.538;18.972;2023-08-06T03:50:49;1.85;;;0.98;;
75400;SDS011;63974;47.538;18.972;2023-08-06T03:53:53;1.60;;;1.33;;
75400;SDS011;63974;47.538;18.972;2023-08-06T03:56:56;2.00;;;1.02;;
75400;SDS011;63974;47.538;18.972;2023-08-06T03:59:59;1.90;;;1.10;;
75400;SDS011;63974;47.538;18.972;2023-08-06T04:03:04;2.10;;;1.30;;
75400;SDS011;63974;47.538;18.972;2023-08-06T04:06:07;1.90;;;1.15;;
75400;SDS011;63974;47.538;18.972;2023-08-06T04:09:11;1.15;;;1.00;;
75400;SDS011;63974;47.538;18.972;2023-08-06T04:12:14;1.30;;;1.13;;
75400;SDS011;63974;47.538;18.972;2023-08-06T04:15:17;1.10;;;0.83;;
75400;SDS011;63974;47.538;18.972;2023-08-06T04:18:19;0.70;;;0.60;;
75400;SDS011;63974;47.538;18.972;2023-08-06T04:21:23;0.50;;;0.50;;
75400;SDS011;63974;47.538;18.972;2023-08-06T04:24:25;0.50;;;0.50;;
75400;SDS011;63974;47.538;18.972;2023-08-06T04:27:28;0.52;;;0.43;;
75400;SDS011;63974;47.538;18.972;2023-08-06T04:30:31;2.27;;;0.40;;
75400;SDS011;63974;47.538;18.972;2023-08-06T04:33:34;1.53;;;0.40;;
75400;SDS011;63974;47.538;18.972;2023-08-06T04:36:43;0.90;;;0.25;;
75400;SDS011;63974;47.538;18.972;2023-08-06T04:39:46;0.57;;;0.40;;
75400;SDS011;63974;47.538;18.972;2023-08-06T04:42:50;0.93;;;0.47;;
75400;SDS011;63974;47.538;18.972;2023-08-06T04:45:54;0.50;;;0.30;;
75400;SDS011;63974;47.538;18.972;2023-08-06T04:48:58;0.50;;;0.10;;
75400;SDS011;63974;47.538;18.972;2023-08-06T04:52:01;0.45;;;0.30;;
75400;SDS011;63974;47.538;18.972;2023-08-06T04:55:04;0.30;;;0.30;;
75400;SDS011;63974;47.538;18.972;2023-08-06T04:58:09;1.15;;;0.50;;
75400;SDS011;63974;47.538;18.972;2023-08-06T05:01:12;0.20;;;0.20;;
75400;SDS011;63974;47.538;18.972;2023-08-06T05:04:15;0.80;;;0.30;;
75400;SDS011;63974;47.538;18.972;2023-08-06T05:07:18;0.20;;;0.20;;
75400;SDS011;63974;47.538;18.972;2023-08-06T05:10:21;0.52;;;0.38;;
75400;SDS011;63974;47.538;18.972;2023-08-06T05:13:24;0.38;;;0.38;;
75400;SDS011;63974;47.538;18.972;2023-08-06T05:16:27;0.13;;;0.10;;
75400;SDS011;63974;47.538;18.972;2023-08-06T05:19:30;0.30;;;0.30;;
75400;SDS011;63974;47.538;18.972;2023-08-06T05:22:33;0.80;;;0.20;;
75400;SDS011;63974;47.538;18.972;2023-08-06T05:25:36;0.68;;;0.17;;
75400;SDS011;63974;47.538;18.972;2023-08-06T05:28:39;0.52;;;0.10;;
75400;SDS011;63974;47.538;18.972;2023-08-06T05:31:43;0.23;;;0.00;;
75400;SDS011;63974;47.538;18.972;2023-08-06T05:34:46;0.30;;;0.30;;
75400;SDS011;63974;47.538;18.972;2023-08-06T05:37:52;0.20;;;0.20;;
75400;SDS011;63974;47.538;18.972;2023-08-06T05:40:55;0.10;;;0.10;;
75400;SDS011;63974;47.538;18.972;2023-08-06T05:43:58;0.73;;;0.20;;
75400;SDS011;63974;47.538;18.972;2023-08-06T05:47:04;0.70;;;0.20;;
75400;SDS011;63974;47.538;18.972;2023-08-06T05:50:07;0.10;;;0.00;;
75400;SDS011;63974;47.538;18.972;2023-08-06T05:53:11;0.32;;;0.32;;
75400;SDS011;63974;47.538;18.972;2023-08-06T05:56:14;0.57;;;0.10;;
75400;SDS011;63974;47.538;18.972;2023-08-06T05:59:17;0.17;;;0.17;;
75400;SDS011;63974;47.538;18.972;2023-08-06T06:02:20;0.20;;;0.20;;
75400;SDS011;63974;47.538;18.972;2023-08-06T06:05:22;1.23;;;0.20;;
75400;SDS011;63974;47.538;18.972;2023-08-06T06:08:25;0.20;;;0.20;;
75400;SDS011;63974;47.538;18.972;2023-08-06T06:11:28;0.95;;;0.10;;
75400;SDS011;63974;47.538;18.972;2023-08-06T06:14:31;0.20;;;0.20;;
75400;SDS011;63974;47.538;18.972;2023-08-06T06:17:33;0.20;;;0.20;;
75400;SDS011;63974;47.538;18.972;2023-08-06T06:20:36;0.17;;;0.17;;
75400;SDS011;63974;47.538;18.972;2023-08-06T06:23:39;0.15;;;0.15;;
75400;SDS011;63974;47.538;18.972;2023-08-06T06:26:42;0.30;;;0.20;;
75400;SDS011;63974;47.538;18.972;2023-08-06T06:29:45;0.60;;;0.55;;
75400;SDS011;63974;47.538;18.972;2023-08-06T06:32:47;0.97;;;0.20;;
75400;SDS011;63974;47.538;18.972;2023-08-06T06:35:50;0.40;;;0.20;;
75400;SDS011;63974;47.538;18.972;2023-08-06T06:38:53;0.45;;;0.45;;
75400;SDS011;63974;47.538;18.972;2023-08-06T06:41:56;0.80;;;0.38;;
75400;SDS011;63974;47.538;18.972;2023-08-06T06:45:06;0.63;;;0.20;;
75400;SDS011;63974;47.538;18.972;2023-08-06T06:48:10;0.10;;;0.07;;
75400;SDS011;63974;47.538;18.972;2023-08-06T06:51:12;0.77;;;0.20;;
75400;SDS011;63974;47.538;18.972;2023-08-06T06:54:15;2.00;;;0.20;;
75400;SDS011;63974;47.538;18.972;2023-08-06T06:57:18;1.80;;;0.20;;
75400;SDS011;63974;47.538;18.972;2023-08-06T07:00:21;0.30;;;0.30;;
75400;SDS011;63974;47.538;18.972;2023-08-06T07:03:23;0.20;;;0.13;;
75400;SDS011;63974;47.538;18.972;2023-08-06T07:06:26;0.40;;;0.40;;
75400;SDS011;63974;47.538;18.972;2023-08-06T07:09:29;0.68;;;0.40;;
75400;SDS011;63974;47.538;18.972;2023-08-06T07:12:32;0.88;;;0.45;;
75400;SDS011;63974;47.538;18.972;2023-08-06T07:15:35;1.40;;;0.40;;
75400;SDS011;63974;47.538;18.972;2023-08-06T07:18:38;0.30;;;0.20;;
75400;SDS011;63974;47.538;18.972;2023-08-06T07:21:40;0.70;;;0.70;;
75400;SDS011;63974;47.538;18.972;2023-08-06T07:24:43;1.25;;;0.30;;
75400;SDS011;63974;47.538;18.972;2023-08-06T07:27:46;0.60;;;0.50;;
75400;SDS011;63974;47.538;18.972;2023-08-06T07:30:49;0.60;;;0.60;;
75400;SDS011;63974;47.538;18.972;2023-08-06T07:33:52;0.53;;;0.53;;
75400;SDS011;63974;47.538;18.972;2023-08-06T07:36:54;1.77;;;0.70;;
75400;SDS011;63974;47.538;18.972;2023-08-06T07:39:57;1.02;;;1.02;;
75400;SDS011;63974;47.538;18.972;2023-08-06T07:43:00;0.95;;;0.60;;
75400;SDS011;63974;47.538;18.972;2023-08-06T07:46:03;0.52;;;0.52;;
75400;SDS011;63974;47.538;18.972;2023-08-06T07:49:06;0.60;;;0.60;;
75400;SDS011;63974;47.538;18.972;2023-08-06T07:52:09;0.60;;;0.40;;
75400;SDS011;63974;47.538;18.972;2023-08-06T07:55:12;0.30;;;0.30;;
75400;SDS011;63974;47.538;18.972;2023-08-06T07:58:15;0.32;;;0.15;;
75400;SDS011;63974;47.538;18.972;2023-08-06T08:01:18;0.77;;;0.45;;
75400;SDS011;63974;47.538;18.972;2023-08-06T08:04:21;0.10;;;0.10;;
75400;SDS011;63974;47.538;18.972;2023-08-06T08:07:24;0.83;;;0.40;;
75400;SDS011;63974;47.538;18.972;2023-08-06T08:10:27;0.20;;;0.20;;
75400;SDS011;63974;47.538;18.972;2023-08-06T08:13:29;0.40;;;0.40;;
75400;SDS011;63974;47.538;18.972;2023-08-06T08:16:32;0.60;;;0.40;;
75400;SDS011;63974;47.538;18.972;2023-08-06T08:19:35;0.30;;;0.30;;
75400;SDS011;63974;47.538;18.972;2023-08-06T08:22:38;0.57;;;0.20;;
75400;SDS011;63974;47.538;18.972;2023-08-06T08:25:41;0.82;;;0.52;;
75400;SDS011;63974;47.538;18.972;2023-08-06T08:28:44;0.77;;;0.30;;
75400;SDS011;63974;47.538;18.972;2023-08-06T08:31:46;0.40;;;0.40;;
75400;SDS011;63974;47.538;18.972;2023-08-06T08:34:51;0.50;;;0.50;;
75400;SDS011;63974;47.538;18.972;2023-08-06T08:37:54;0.50;;;0.50;;
75400;SDS011;63974;47.538;18.972;2023-08-06T08:40:56;0.93;;;0.35;;
75400;SDS011;63974;47.538;18.972;2023-08-06T08:43:59;0.60;;;0.20;;
75400;SDS011;63974;47.538;18.972;2023-08-06T08:47:06;0.55;;;0.40;;
75400;SDS011;63974;47.538;18.972;2023-08-06T08:50:09;1.20;;;0.40;;
75400;SDS011;63974;47.538;18.972;2023-08-06T08:53:14;0.47;;;0.47;;
75400;SDS011;63974;47.538;18.972;2023-08-06T08:56:18;0.85;;;0.85;;
75400;SDS011;63974;47.538;18.972;2023-08-06T08:59:21;0.77;;;0.60;;
75400;SDS011;63974;47.538;18.972;2023-08-06T09:02:25;1.10;;;0.88;;
75400;SDS011;63974;47.538;18.972;2023-08-06T09:05:32;0.50;;;0.50;;
75400;SDS011;63974;47.538;18.972;2023-08-06T09:08:36;0.60;;;0.60;;
75400;SDS011;63974;47.538;18.972;2023-08-06T09:11:53;0.80;;;0.80;;
75400;SDS011;63974;47.538;18.972;2023-08-06T09:15:02;1.08;;;1.00;;
75400;SDS011;63974;47.538;18.972;2023-08-06T09:18:11;0.85;;;0.85;;
75400;SDS011;63974;47.538;18.972;2023-08-06T09:21:15;0.83;;;0.83;;
75400;SDS011;63974;47.538;18.972;2023-08-06T09:24:20;0.80;;;0.80;;
75400;SDS011;63974;47.538;18.972;2023-08-06T09:27:24;0.63;;;0.63;;
75400;SDS011;63974;47.538;18.972;2023-08-06T09:30:30;0.77;;;0.47;;
75400;SDS011;63974;47.538;18.972;2023-08-06T09:33:35;0.35;;;0.30;;
75400;SDS011;63974;47.538;18.972;2023-08-06T09:36:40;1.03;;;0.73;;
75400;SDS011;63974;47.538;18.972;2023-08-06T09:39:47;0.73;;;0.67;;
75400;SDS011;63974;47.538;18.972;2023-08-06T09:42:50;0.68;;;0.63;;
75400;SDS011;63974;47.538;18.972;2023-08-06T09:45:53;1.15;;;0.60;;
75400;SDS011;63974;47.538;18.972;2023-08-06T09:48:57;0.77;;;0.50;;
75400;SDS011;63974;47.538;18.972;2023-08-06T09:52:00;0.70;;;0.70;;
75400;SDS011;63974;47.538;18.972;2023-08-06T09:55:03;1.47;;;0.80;;
75400;SDS011;63974;47.538;18.972;2023-08-06T09:58:06;1.02;;;1.02;;
75400;SDS011;63974;47.538;18.972;2023-08-06T10:01:09;0.50;;;0.50;;
75400;SDS011;63974;47.538;18.972;2023-08-06T10:04:14;1.20;;;0.88;;
75400;SDS011;63974;47.538;18.972;2023-08-06T10:07:25;1.77;;;0.60;;
75400;SDS011;63974;47.538;18.972;2023-08-06T10:10:29;0.37;;;0.30;;
75400;SDS011;63974;47.538;18.972;2023-08-06T10:13:33;0.60;;;0.47;;
75400;SDS011;63974;47.538;18.972;2023-08-06T10:16:38;0.90;;;0.28;;
75400;SDS011;63974;47.538;18.972;2023-08-06T10:19:42;0.70;;;0.70;;
75400;SDS011;63974;47.538;18.972;2023-08-06T10:22:45;0.70;;;0.57;;
75400;SDS011;63974;47.538;18.972;2023-08-06T10:25:53;1.20;;;0.60;;
75400;SDS011;63974;47.538;18.972;2023-08-06T10:28:59;1.10;;;0.55;;
75400;SDS011;63974;47.538;18.972;2023-08-06T10:32:02;0.65;;;0.65;;
75400;SDS011;63974;47.538;18.972;2023-08-06T10:35:07;1.02;;;1.02;;
75400;SDS011;63974;47.538;18.972;2023-08-06T10:38:52;1.07;;;1.00;;
75400;SDS011;63974;47.538;18.972;2023-08-06T10:41:56;0.93;;;0.93;;
75400;SDS011;63974;47.538;18.972;2023-08-06T10:45:14;0.98;;;0.98;;
75400;SDS011;63974;47.538;18.972;2023-08-06T10:48:31;0.95;;;0.95;;
75400;SDS011;63974;47.538;18.972;2023-08-06T10:51:35;0.85;;;0.85;;
75400;SDS011;63974;47.538;18.972;2023-08-06T10:54:39;0.73;;;0.70;;
75400;SDS011;63974;47.538;18.972;2023-08-06T10:57:42;0.60;;;0.60;;
75400;SDS011;63974;47.538;18.972;2023-08-06T11:00:45;0.55;;;0.43;;
75400;SDS011;63974;47.538;18.972;2023-08-06T11:03:48;0.47;;;0.40;;
75400;SDS011;63974;47.538;18.972;2023-08-06T11:06:52;0.50;;;0.50;;
75400;SDS011;63974;47.538;18.972;2023-08-06T11:10:04;0.93;;;0.57;;
75400;SDS011;63974;47.538;18.972;2023-08-06T11:13:09;0.70;;;0.50;;
75400;SDS011;63974;47.538;18.972;2023-08-06T11:16:18;0.65;;;0.55;;
75400;SDS011;63974;47.538;18.972;2023-08-06T11:19:22;0.50;;;0.50;;
75400;SDS011;63974;47.538;18.972;2023-08-06T11:22:26;0.73;;;0.63;;
75400;SDS011;63974;47.538;18.972;2023-08-06T11:25:29;0.70;;;0.70;;
75400;SDS011;63974;47.538;18.972;2023-08-06T11:28:31;0.50;;;0.40;;
75400;SDS011;63974;47.538;18.972;2023-08-06T11:31:35;0.70;;;0.70;;
75400;SDS011;63974;47.538;18.972;2023-08-06T11:34:39;0.90;;;0.65;;
75400;SDS011;63974;47.538;18.972;2023-08-06T11:37:43;0.60;;;0.40;;
75400;SDS011;63974;47.538;18.972;2023-08-06T11:40:50;0.80;;;0.67;;
75400;SDS011;63974;47.538;18.972;2023-08-06T11:43:53;0.80;;;0.80;;
75400;SDS011;63974;47.538;18.972;2023-08-06T11:46:56;0.93;;;0.93;;
75400;SDS011;63974;47.538;18.972;2023-08-06T11:49:59;0.90;;;0.90;;
75400;SDS011;63974;47.538;18.972;2023-08-06T11:53:02;0.80;;;0.80;;
75400;SDS011;63974;47.538;18.972;2023-08-06T11:56:05;0.90;;;0.90;;
75400;SDS011;63974;47.538;18.972;2023-08-06T11:59:08;1.43;;;0.60;;
75400;SDS011;63974;47.538;18.972;2023-08-06T12:02:11;0.77;;;0.77;;
75400;SDS011;63974;47.538;18.972;2023-08-06T12:05:14;1.50;;;0.60;;
75400;SDS011;63974;47.538;18.972;2023-08-06T12:08:18;0.50;;;0.50;;
75400;SDS011;63974;47.538;18.972;2023-08-06T12:11:22;1.17;;;0.60;;
75400;SDS011;63974;47.538;18.972;2023-08-06T12:14:26;0.50;;;0.23;;
75400;SDS011;63974;47.538;18.972;2023-08-06T12:17:29;0.40;;;0.40;;
75400;SDS011;63974;47.538;18.972;2023-08-06T12:20:31;1.27;;;0.73;;
75400;SDS011;63974;47.538;18.972;2023-08-06T12:23:34;1.08;;;0.40;;
75400;SDS011;63974;47.538;18.972;2023-08-06T12:26:38;1.37;;;0.40;;
75400;SDS011;63974;47.538;18.972;2023-08-06T12:29:42;0.50;;;0.40;;
75400;SDS011;63974;47.538;18.972;2023-08-06T12:32:48;0.80;;;0.52;;
75400;SDS011;63974;47.538;18.972;2023-08-06T12:35:51;0.80;;;0.32;;
75400;SDS011;63974;47.538;18.972;2023-08-06T12:38:57;0.60;;;0.40;;
75400;SDS011;63974;47.538;18.972;2023-08-06T12:42:04;2.63;;;0.47;;
75400;SDS011;63974;47.538;18.972;2023-08-06T12:45:11;1.23;;;0.30;;
75400;SDS011;63974;47.538;18.972;2023-08-06T12:48:14;1.17;;;0.40;;
75400;SDS011;63974;47.538;18.972;2023-08-06T12:51:17;1.55;;;0.73;;
75400;SDS011;63974;47.538;18.972;2023-08-06T12:54:20;0.65;;;0.65;;
75400;SDS011;63974;47.538;18.972;2023-08-06T12:57:23;1.03;;;0.50;;
75400;SDS011;63974;47.538;18.972;2023-08-06T13:00:40;0.67;;;0.50;;
75400;SDS011;63974;47.538;18.972;2023-08-06T13:03:43;1.08;;;0.40;;
75400;SDS011;63974;47.538;18.972;2023-08-06T13:06:46;0.95;;;0.65;;
75400;SDS011;63974;47.538;18.972;2023-08-06T13:09:49;0.77;;;0.40;;
75400;SDS011;63974;47.538;18.972;2023-08-06T13:12:52;2.33;;;0.30;;
75400;SDS011;63974;47.538;18.972;2023-08-06T13:15:54;0.60;;;0.50;;
75400;SDS011;63974;47.538;18.972;2023-08-06T13:18:57;1.38;;;0.60;;
75400;SDS011;63974;47.538;18.972;2023-08-06T13:22:01;1.15;;;0.50;;
75400;SDS011;63974;47.538;18.972;2023-08-06T13:25:07;1.15;;;0.55;;
75400;SDS011;63974;47.538;18.972;2023-08-06T13:28:10;0.40;;;0.40;;
75400;SDS011;63974;47.538;18.972;2023-08-06T13:31:13;0.60;;;0.33;;
75400;SDS011;63974;47.538;18.972;2023-08-06T13:34:16;0.57;;;0.57;;
75400;SDS011;63974;47.538;18.972;2023-08-06T13:37:19;0.80;;;0.68;;
75400;SDS011;63974;47.538;18.972;2023-08-06T13:40:21;0.55;;;0.47;;
75400;SDS011;63974;47.538;18.972;2023-08-06T13:43:24;0.60;;;0.40;;
75400;SDS011;63974;47.538;18.972;2023-08-06T13:46:27;0.47;;;0.47;;
75400;SDS011;63974;47.538;18.972;2023-08-06T13:49:30;0.50;;;0.47;;
75400;SDS011;63974;47.538;18.972;2023-08-06T13:52:32;1.10;;;0.75;;
75400;SDS011;63974;47.538;18.972;2023-08-06T13:55:36;0.55;;;0.47;;
75400;SDS011;63974;47.538;18.972;2023-08-06T13:58:39;0.70;;;0.67;;
75400;SDS011;63974;47.538;18.972;2023-08-06T14:01:41;0.60;;;0.50;;
75400;SDS011;63974;47.538;18.972;2023-08-06T14:04:53;0.68;;;0.47;;
75400;SDS011;63974;47.538;18.972;2023-08-06T14:07:56;0.43;;;0.28;;
75400;SDS011;63974;47.538;18.972;2023-08-06T14:10:59;0.85;;;0.40;;
75400;SDS011;63974;47.538;18.972;2023-08-06T14:14:01;1.03;;;0.43;;
75400;SDS011;63974;47.538;18.972;2023-08-06T14:17:05;0.50;;;0.50;;
75400;SDS011;63974;47.538;18.972;2023-08-06T14:20:08;0.90;;;0.68;;
75400;SDS011;63974;47.538;18.972;2023-08-06T14:23:14;0.65;;;0.65;;
75400;SDS011;63974;47.538;18.972;2023-08-06T14:26:17;0.68;;;0.52;;
75400;SDS011;63974;47.538;18.972;2023-08-06T14:29:19;0.83;;;0.40;;
75400;SDS011;63974;47.538;18.972;2023-08-06T14:32:22;1.00;;;0.50;;
75400;SDS011;63974;47.538;18.972;2023-08-06T14:35:25;0.73;;;0.35;;
75400;SDS011;63974;47.538;18.972;2023-08-06T14:38:28;1.45;;;0.45;;
75400;SDS011;63974;47.538;18.972;2023-08-06T14:41:31;0.70;;;0.40;;
75400;SDS011;63974;47.538;18.972;2023-08-06T14:44:34;0.33;;;0.30;;
75400;SDS011;63974;47.538;18.972;2023-08-06T14:47:36;0.80;;;0.70;;
75400;SDS011;63974;47.538;18.972;2023-08-06T14:50:39;0.80;;;0.38;;
75400;SDS011;63974;47.538;18.972;2023-08-06T14:53:43;0.30;;;0.30;;
75400;SDS011;63974;47.538;18.972;2023-08-06T14:56:46;0.50;;;0.30;;
75400;SDS011;63974;47.538;18.972;2023-08-06T14:59:49;0.27;;;0.20;;
75400;SDS011;63974;47.538;18.972;2023-08-06T15:02:51;0.90;;;0.30;;
75400;SDS011;63974;47.538;18.972;2023-08-06T15:05:54;1.20;;;0.28;;
75400;SDS011;63974;47.538;18.972;2023-08-06T15:08:57;0.80;;;0.38;;
75400;SDS011;63974;47.538;18.972;2023-08-06T15:12:03;0.50;;;0.20;;
75400;SDS011;63974;47.538;18.972;2023-08-06T15:15:06;0.80;;;0.60;;
75400;SDS011;63974;47.538;18.972;2023-08-06T15:18:10;1.00;;;0.50;;
75400;SDS011;63974;47.538;18.972;2023-08-06T15:21:13;0.75;;;0.57;;
75400;SDS011;63974;47.538;18.972;2023-08-06T15:24:16;0.73;;;0.50;;
75400;SDS011;63974;47.538;18.972;2023-08-06T15:27:19;4.53;;;0.60;;
75400;SDS011;63974;47.538;18.972;2023-08-06T15:30:22;0.83;;;0.57;;
75400;SDS011;63974;47.538;18.972;2023-08-06T15:33:25;0.90;;;0.50;;
75400;SDS011;63974;47.538;18.972;2023-08-06T15:36:27;0.50;;;0.45;;
75400;SDS011;63974;47.538;18.972;2023-08-06T15:39:30;0.70;;;0.60;;
75400;SDS011;63974;47.538;18.972;2023-08-06T15:42:34;1.27;;;0.45;;
75400;SDS011;63974;47.538;18.972;2023-08-06T15:45:36;1.53;;;0.77;;
75400;SDS011;63974;47.538;18.972;2023-08-06T15:48:39;1.07;;;0.50;;
75400;SDS011;63974;47.538;18.972;2023-08-06T15:51:42;1.73;;;0.65;;
75400;SDS011;63974;47.538;18.972;2023-08-06T15:54:46;1.70;;;0.60;;
75400;SDS011;63974;47.538;18.972;2023-08-06T15:57:48;1.30;;;0.77;;
75400;SDS011;63974;47.538;18.972;2023-08-06T16:00:51;2.60;;;0.50;;
75400;SDS011;63974;47.538;18.972;2023-08-06T16:03:55;2.30;;;0.80;;
75400;SDS011;63974;47.538;18.972;2023-08-06T16:06:58;1.10;;;0.73;;
75400;SDS011;63974;47.538;18.972;2023-08-06T16:10:02;1.20;;;0.50;;
75400;SDS011;63974;47.538;18.972;2023-08-06T16:13:05;2.42;;;0.70;;
75400;SDS011;63974;47.538;18.972;2023-08-06T16:16:08;1.43;;;0.50;;
75400;SDS011;63974;47.538;18.972;2023-08-06T16:19:11;1.10;;;0.50;;
75400;SDS011;63974;47.538;18.972;2023-08-06T16:22:13;0.85;;;0.70;;
75400;SDS011;63974;47.538;18.972;2023-08-06T16:25:16;0.98;;;0.88;;
75400;SDS011;63974;47.538;18.972;2023-08-06T16:28:19;0.77;;;0.70;;
75400;SDS011;63974;47.538;18.972;2023-08-06T16:31:22;0.80;;;0.60;;
75400;SDS011;63974;47.538;18.972;2023-08-06T16:34:25;0.80;;;0.60;;
75400;SDS011;63974;47.538;18.972;2023-08-06T16:37:28;1.10;;;1.10;;
75400;SDS011;63974;47.538;18.972;2023-08-06T16:40:31;2.97;;;0.52;;
75400;SDS011;63974;47.538;18.972;2023-08-06T16:43:33;0.88;;;0.60;;
75400;SDS011;63974;47.538;18.972;2023-08-06T16:46:36;0.73;;;0.43;;
75400;SDS011;63974;47.538;18.972;2023-08-06T16:49:39;1.87;;;0.40;;
75400;SDS011;63974;47.538;18.972;2023-08-06T16:52:42;0.60;;;0.30;;
75400;SDS011;63974;47.538;18.972;2023-08-06T16:55:45;0.95;;;0.45;;
75400;SDS011;63974;47.538;18.972;2023-08-06T16:58:47;1.33;;;0.90;;
75400;SDS011;63974;47.538;18.972;2023-08-06T17:01:50;0.80;;;0.73;;
75400;SDS011;63974;47.538;18.972;2023-08-06T17:04:53;1.80;;;0.77;;
75400;SDS011;63974;47.538;18.972;2023-08-06T17:07:56;0.70;;;0.70;;
75400;SDS011;63974;47.538;18.972;2023-08-06T17:10:58;0.65;;;0.65;;
75400;SDS011;63974;47.538;18.972;2023-08-06T17:14:02;1.73;;;0.63;;
75400;SDS011;63974;47.538;18.972;2023-08-06T17:17:04;1.07;;;0.60;;
75400;SDS011;63974;47.538;18.972;2023-08-06T17:20:07;1.20;;;0.57;;
75400;SDS011;63974;47.538;18.972;2023-08-06T17:23:10;3.47;;;0.80;;
75400;SDS011;63974;47.538;18.972;2023-08-06T17:26:13;1.20;;;0.80;;
75400;SDS011;63974;47.538;18.972;2023-08-06T17:29:16;0.75;;;0.68;;
75400;SDS011;63974;47.538;18.972;2023-08-06T17:32:19;1.17;;;0.60;;
75400;SDS011;63974;47.538;18.972;2023-08-06T17:35:22;0.70;;;0.50;;
75400;SDS011;63974;47.538;18.972;2023-08-06T17:38:25;0.88;;;0.47;;
75400;SDS011;63974;47.538;18.972;2023-08-06T17:41:28;1.15;;;0.68;;
75400;SDS011;63974;47.538;18.972;2023-08-06T17:44:30;0.80;;;0.70;;
75400;SDS011;63974;47.538;18.972;2023-08-06T17:47:33;1.30;;;0.60;;
75400;SDS011;63974;47.538;18.972;2023-08-06T17:50:39;1.63;;;0.50;;
75400;SDS011;63974;47.538;18.972;2023-08-06T17:53:42;1.48;;;0.57;;
75400;SDS011;63974;47.538;18.972;2023-08-06T17:56:46;1.02;;;0.47;;
75400;SDS011;63974;47.538;18.972;2023-08-06T17:59:49;0.98;;;0.60;;
75400;SDS011;63974;47.538;18.972;2023-08-06T18:02:52;0.70;;;0.47;;
75400;SDS011;63974;47.538;18.972;2023-08-06T18:05:58;1.53;;;0.50;;
75400;SDS011;63974;47.538;18.972;2023-08-06T18:09:02;0.43;;;0.40;;
75400;SDS011;63974;47.538;18.972;2023-08-06T18:12:06;3.05;;;0.70;;